LPE2436 SASA-SPJC
Flight info
| Callsign | LPE2436 |
|---|---|
| Flight time | 2h 53m |
| Altitude | 36000 |
| Route | VUL1 PONPI DCT KONRI UL550 SCO |
| Aircraft | A320/M-SDE3FGHIRWY/LB1 |
Departure
| Time | 2026-04-22 21:17 |
|---|---|
| Airport | Martín Miguel de Güemes International Airport (SASA) |
Arrival
| Time | 2026-04-23 00:11 |
|---|---|
| Airport | Jorge Chávez International Airport (SPJC) |
| Time | Latitude | Longitude | Altitude | Speed | Heading |
|---|---|---|---|---|---|
| 2026-04-22 20:43 | -24.84497 | -65.47825 | 4017 ft | 0 kts | 22° |
| 2026-04-22 21:08 | -24.84507 | -65.47830 | 4017 ft | 4 kts | 14° |
| 2026-04-22 21:08 | -24.84532 | -65.47830 | 4017 ft | 4 kts | 321° |
| 2026-04-22 21:09 | -24.84543 | -65.47815 | 4017 ft | 0 kts | 292° |
| 2026-04-22 21:11 | -24.84532 | -65.47845 | 4017 ft | 9 kts | 292° |
| 2026-04-22 21:11 | -24.84504 | -65.47946 | 4017 ft | 18 kts | 272° |
| 2026-04-22 21:11 | -24.84544 | -65.48111 | 4017 ft | 25 kts | 251° |
| 2026-04-22 21:11 | -24.84597 | -65.48295 | 4017 ft | 26 kts | 252° |
| 2026-04-22 21:12 | -24.84716 | -65.48429 | 4017 ft | 25 kts | 216° |
| 2026-04-22 21:12 | -24.84880 | -65.48472 | 4018 ft | 25 kts | 189° |
| 2026-04-22 21:12 | -24.85052 | -65.48509 | 4017 ft | 26 kts | 192° |
| 2026-04-22 21:12 | -24.85230 | -65.48547 | 4017 ft | 26 kts | 190° |
| 2026-04-22 21:13 | -24.85413 | -65.48583 | 4017 ft | 27 kts | 193° |
| 2026-04-22 21:13 | -24.85596 | -65.48625 | 4019 ft | 27 kts | 192° |
| 2026-04-22 21:13 | -24.85778 | -65.48664 | 4018 ft | 24 kts | 190° |
| 2026-04-22 21:13 | -24.85941 | -65.48699 | 4019 ft | 24 kts | 191° |
| 2026-04-22 21:14 | -24.86108 | -65.48735 | 4018 ft | 25 kts | 191° |
| 2026-04-22 21:14 | -24.86284 | -65.48774 | 4017 ft | 26 kts | 192° |
| 2026-04-22 21:14 | -24.86470 | -65.48813 | 4011 ft | 28 kts | 191° |
| 2026-04-22 21:14 | -24.86658 | -65.48850 | 4011 ft | 28 kts | 189° |
| 2026-04-22 21:15 | -24.86851 | -65.48888 | 4008 ft | 29 kts | 188° |
| 2026-04-22 21:15 | -24.87032 | -65.48848 | 4017 ft | 16 kts | 164° |
| 2026-04-22 21:15 | -24.87042 | -65.48845 | 4017 ft | 3 kts | 164° |
| 2026-04-22 21:15 | -24.87115 | -65.48822 | 4018 ft | 18 kts | 164° |
| 2026-04-22 21:16 | -24.87276 | -65.48810 | 4017 ft | 27 kts | 209° |
| 2026-04-22 21:16 | -24.87261 | -65.48966 | 4019 ft | 20 kts | 331° |
| 2026-04-22 21:16 | -24.87211 | -65.48969 | 4019 ft | 1 kts | 11° |
| 2026-04-22 21:16 | -24.87081 | -65.48940 | 4018 ft | 53 kts | 11° |
| 2026-04-22 21:17 | -24.86477 | -65.48811 | 4005 ft | 121 kts | 10° |
| 2026-04-22 21:17 | -24.85467 | -65.48600 | 4054 ft | 168 kts | 12° |
| 2026-04-22 21:17 | -24.84279 | -65.48352 | 4578 ft | 178 kts | 12° |
| 2026-04-22 21:17 | -24.83064 | -65.48087 | 5348 ft | 178 kts | 12° |
| 2026-04-22 21:18 | -24.81782 | -65.47804 | 5620 ft | 200 kts | 12° |
| 2026-04-22 21:18 | -24.80336 | -65.47484 | 5877 ft | 223 kts | 12° |
| 2026-04-22 21:18 | -24.78753 | -65.47134 | 6297 ft | 238 kts | 12° |
| 2026-04-22 21:18 | -24.77105 | -65.46771 | 6959 ft | 244 kts | 12° |
| 2026-04-22 21:19 | -24.75528 | -65.46103 | 7642 ft | 246 kts | 40° |
| 2026-04-22 21:19 | -24.74525 | -65.44538 | 8079 ft | 264 kts | 73° |
| 2026-04-22 21:19 | -24.74472 | -65.42461 | 8496 ft | 282 kts | 100° |
| 2026-04-22 21:19 | -24.75019 | -65.40362 | 9210 ft | 288 kts | 108° |
| 2026-04-22 21:20 | -24.75717 | -65.38280 | 10018 ft | 292 kts | 109° |
| 2026-04-22 21:20 | -24.76438 | -65.36176 | 10692 ft | 296 kts | 114° |
| 2026-04-22 21:20 | -24.77627 | -65.34306 | 11347 ft | 303 kts | 134° |
| 2026-04-22 21:20 | -24.79327 | -65.32892 | 11857 ft | 316 kts | 152° |
| 2026-04-22 21:21 | -24.81490 | -65.32164 | 12000 ft | 340 kts | 175° |
| 2026-04-22 21:21 | -24.83906 | -65.32072 | 12130 ft | 361 kts | 179° |
| 2026-04-22 21:21 | -24.86490 | -65.32048 | 12260 ft | 381 kts | 180° |
| 2026-04-22 21:21 | -24.89189 | -65.32049 | 12612 ft | 392 kts | 180° |
| 2026-04-22 21:22 | -24.91929 | -65.32056 | 13151 ft | 396 kts | 180° |
| 2026-04-22 21:22 | -24.94697 | -65.32054 | 13722 ft | 399 kts | 180° |
| 2026-04-22 21:22 | -24.97478 | -65.32043 | 14234 ft | 401 kts | 180° |
| 2026-04-22 21:22 | -25.00288 | -65.32029 | 14704 ft | 405 kts | 181° |
| 2026-04-22 21:23 | -25.03115 | -65.32011 | 15181 ft | 408 kts | 181° |
| 2026-04-22 21:23 | -25.05965 | -65.31991 | 15688 ft | 411 kts | 181° |
| 2026-04-22 21:23 | -25.08831 | -65.31970 | 16181 ft | 414 kts | 181° |
| 2026-04-22 21:23 | -25.11729 | -65.31950 | 16675 ft | 417 kts | 181° |
| 2026-04-22 21:24 | -25.14647 | -65.31932 | 17157 ft | 421 kts | 182° |
| 2026-04-22 21:24 | -25.17598 | -65.31916 | 17640 ft | 425 kts | 182° |
| 2026-04-22 21:24 | -25.20564 | -65.31899 | 18132 ft | 428 kts | 182° |
| 2026-04-22 21:24 | -25.23561 | -65.31879 | 18571 ft | 432 kts | 182° |
| 2026-04-22 21:25 | -25.26580 | -65.31855 | 18987 ft | 436 kts | 182° |
| 2026-04-22 21:25 | -25.29622 | -65.31832 | 19400 ft | 438 kts | 182° |
| 2026-04-22 21:25 | -25.32675 | -65.31808 | 19806 ft | 440 kts | 183° |
| 2026-04-22 21:25 | -25.35746 | -65.31785 | 20186 ft | 443 kts | 183° |
| 2026-04-22 21:26 | -25.38841 | -65.31766 | 20529 ft | 447 kts | 183° |
| 2026-04-22 21:26 | -25.41957 | -65.31748 | 20915 ft | 449 kts | 183° |
| 2026-04-22 21:26 | -25.45092 | -65.31732 | 21319 ft | 452 kts | 184° |
| 2026-04-22 21:26 | -25.48246 | -65.31721 | 21701 ft | 454 kts | 185° |
| 2026-04-22 21:27 | -25.51356 | -65.32134 | 22070 ft | 449 kts | 199° |
| 2026-04-22 21:27 | -25.54251 | -65.33334 | 22432 ft | 442 kts | 213° |
| 2026-04-22 21:27 | -25.56772 | -65.35233 | 22814 ft | 436 kts | 226° |
| 2026-04-22 21:27 | -25.58805 | -65.37690 | 23143 ft | 431 kts | 238° |
| 2026-04-22 21:28 | -25.60264 | -65.40557 | 23511 ft | 426 kts | 251° |
| 2026-04-22 21:28 | -25.61106 | -65.43687 | 23834 ft | 423 kts | 263° |
| 2026-04-22 21:28 | -25.61295 | -65.46876 | 24133 ft | 420 kts | 275° |
| 2026-04-22 21:28 | -25.60828 | -65.50099 | 24443 ft | 419 kts | 287° |
| 2026-04-22 21:29 | -25.59754 | -65.53045 | 24736 ft | 419 kts | 298° |
| 2026-04-22 21:29 | -25.58086 | -65.55741 | 25034 ft | 420 kts | 308° |
| 2026-04-22 21:29 | -25.56250 | -65.58263 | 25321 ft | 421 kts | 308° |
| 2026-04-22 21:29 | -25.54437 | -65.60754 | 25596 ft | 421 kts | 308° |
| 2026-04-22 21:30 | -25.52597 | -65.63283 | 25868 ft | 422 kts | 308° |
| 2026-04-22 21:30 | -25.50753 | -65.65819 | 26115 ft | 424 kts | 308° |
| 2026-04-22 21:30 | -25.48905 | -65.68361 | 26366 ft | 425 kts | 308° |
| 2026-04-22 21:30 | -25.47051 | -65.70913 | 26635 ft | 426 kts | 308° |
| 2026-04-22 21:31 | -25.45193 | -65.73473 | 26885 ft | 426 kts | 308° |
| 2026-04-22 21:31 | -25.43334 | -65.76032 | 27090 ft | 427 kts | 308° |
| 2026-04-22 21:31 | -25.41470 | -65.78591 | 27273 ft | 428 kts | 308° |
| 2026-04-22 21:31 | -25.39604 | -65.81146 | 27586 ft | 426 kts | 308° |
| 2026-04-22 21:32 | -25.37747 | -65.83683 | 27925 ft | 424 kts | 308° |
| 2026-04-22 21:32 | -25.35899 | -65.86211 | 28251 ft | 422 kts | 308° |
| 2026-04-22 21:32 | -25.34057 | -65.88728 | 28600 ft | 420 kts | 308° |
| 2026-04-22 21:32 | -25.32841 | -65.90389 | 28826 ft | 419 kts | 308° |
| 2026-04-22 21:33 | -25.30398 | -65.93728 | 29256 ft | 417 kts | 308° |
| 2026-04-22 21:33 | -25.28575 | -65.96221 | 29579 ft | 415 kts | 308° |
| 2026-04-22 21:33 | -25.27376 | -65.97863 | 29800 ft | 415 kts | 308° |
| 2026-04-22 21:33 | -25.25568 | -66.00337 | 30144 ft | 413 kts | 308° |
| 2026-04-22 21:34 | -25.23763 | -66.02801 | 30440 ft | 411 kts | 308° |
| 2026-04-22 21:34 | -25.21966 | -66.05251 | 30725 ft | 410 kts | 308° |
| 2026-04-22 21:34 | -25.20171 | -66.07692 | 31019 ft | 408 kts | 308° |
| 2026-04-22 21:34 | -25.18385 | -66.10126 | 31308 ft | 407 kts | 308° |
| 2026-04-22 21:35 | -25.16610 | -66.12551 | 31604 ft | 405 kts | 308° |
| 2026-04-22 21:35 | -25.14842 | -66.14963 | 31911 ft | 404 kts | 308° |
| 2026-04-22 21:35 | -25.13078 | -66.17365 | 32214 ft | 402 kts | 308° |
| 2026-04-22 21:35 | -25.11318 | -66.19754 | 32468 ft | 400 kts | 308° |
| 2026-04-22 21:36 | -25.09563 | -66.22135 | 32756 ft | 399 kts | 308° |
| 2026-04-22 21:36 | -25.07812 | -66.24509 | 33028 ft | 398 kts | 308° |
| 2026-04-22 21:36 | -25.06069 | -66.26871 | 33209 ft | 397 kts | 308° |
| 2026-04-22 21:36 | -25.04325 | -66.29238 | 33463 ft | 396 kts | 308° |
| 2026-04-22 21:37 | -25.02032 | -66.32347 | 33829 ft | 393 kts | 308° |
| 2026-04-22 21:37 | -25.00869 | -66.33925 | 34029 ft | 392 kts | 308° |
| 2026-04-22 21:37 | -24.99156 | -66.36252 | 34299 ft | 390 kts | 308° |
| 2026-04-22 21:37 | -24.97444 | -66.38573 | 34582 ft | 389 kts | 308° |
| 2026-04-22 21:38 | -24.95740 | -66.40879 | 34814 ft | 388 kts | 308° |
| 2026-04-22 21:38 | -24.94040 | -66.43180 | 35104 ft | 386 kts | 308° |
| 2026-04-22 21:38 | -24.92361 | -66.45444 | 35356 ft | 386 kts | 308° |
| 2026-04-22 21:38 | -24.90647 | -66.47758 | 35611 ft | 384 kts | 308° |
| 2026-04-22 21:39 | -24.88985 | -66.50005 | 35847 ft | 383 kts | 308° |
| 2026-04-22 21:39 | -24.87304 | -66.52277 | 36037 ft | 382 kts | 308° |
| 2026-04-22 21:39 | -24.83935 | -66.56835 | 36112 ft | 386 kts | 308° |
| 2026-04-22 21:40 | -24.80539 | -66.61415 | 36102 ft | 386 kts | 307° |
| 2026-04-22 21:40 | -24.77414 | -66.65618 | 36104 ft | 387 kts | 308° |
| 2026-04-22 21:41 | -24.76204 | -66.67242 | 36107 ft | 387 kts | 308° |
| 2026-04-22 21:41 | -24.72794 | -66.71827 | 36094 ft | 387 kts | 308° |
| 2026-04-22 21:42 | -24.69387 | -66.76416 | 36087 ft | 387 kts | 308° |
| 2026-04-22 21:42 | -24.65974 | -66.81005 | 36087 ft | 388 kts | 308° |
| 2026-04-22 21:43 | -24.62546 | -66.85594 | 36082 ft | 389 kts | 308° |
| 2026-04-22 21:43 | -24.59112 | -66.90185 | 36089 ft | 389 kts | 308° |
| 2026-04-22 21:44 | -24.55678 | -66.94778 | 36091 ft | 389 kts | 308° |
| 2026-04-22 21:44 | -24.52248 | -66.99368 | 36091 ft | 388 kts | 308° |
| 2026-04-22 21:45 | -24.48821 | -67.03948 | 36090 ft | 388 kts | 308° |
| 2026-04-22 21:45 | -24.45387 | -67.08536 | 36096 ft | 389 kts | 308° |
| 2026-04-22 21:46 | -24.41951 | -67.13119 | 36090 ft | 389 kts | 308° |
| 2026-04-22 21:46 | -24.38536 | -67.17666 | 36087 ft | 389 kts | 308° |
| 2026-04-22 21:47 | -24.35088 | -67.22253 | 36086 ft | 390 kts | 309° |
| 2026-04-22 21:47 | -24.31641 | -67.26848 | 36092 ft | 390 kts | 309° |
| 2026-04-22 21:48 | -24.28197 | -67.31440 | 36093 ft | 390 kts | 309° |
| 2026-04-22 21:48 | -24.24736 | -67.36025 | 36096 ft | 391 kts | 309° |
| 2026-04-22 21:49 | -24.21263 | -67.40620 | 36107 ft | 392 kts | 309° |
| 2026-04-22 21:49 | -24.17793 | -67.45223 | 36112 ft | 392 kts | 309° |
| 2026-04-22 21:50 | -24.14318 | -67.49824 | 36132 ft | 392 kts | 309° |
| 2026-04-22 21:50 | -24.10621 | -67.54213 | 36138 ft | 394 kts | 319° |
| 2026-04-22 21:51 | -24.06271 | -67.57881 | 36156 ft | 395 kts | 320° |
| 2026-04-22 21:52 | -23.99736 | -67.63394 | 36171 ft | 396 kts | 320° |
| 2026-04-22 21:52 | -23.95367 | -67.67082 | 36191 ft | 397 kts | 320° |
| 2026-04-22 21:53 | -23.90995 | -67.70755 | 36197 ft | 396 kts | 320° |
| 2026-04-22 21:53 | -23.86621 | -67.74426 | 36198 ft | 396 kts | 320° |
| 2026-04-22 21:54 | -23.82255 | -67.78099 | 36189 ft | 396 kts | 320° |
| 2026-04-22 21:54 | -23.77881 | -67.81769 | 36184 ft | 396 kts | 320° |
| 2026-04-22 21:55 | -23.73506 | -67.85423 | 36167 ft | 396 kts | 320° |
| 2026-04-22 21:55 | -23.69146 | -67.89080 | 36147 ft | 395 kts | 320° |
| 2026-04-22 21:56 | -23.64814 | -67.92706 | 36127 ft | 395 kts | 320° |
| 2026-04-22 21:56 | -23.60460 | -67.96358 | 36103 ft | 395 kts | 320° |
| 2026-04-22 21:57 | -23.56100 | -68.00001 | 36077 ft | 395 kts | 320° |
| 2026-04-22 21:57 | -23.51735 | -68.03636 | 36053 ft | 395 kts | 320° |
| 2026-04-22 21:58 | -23.47378 | -68.07275 | 36028 ft | 395 kts | 320° |
| 2026-04-22 21:58 | -23.43019 | -68.10912 | 36014 ft | 395 kts | 320° |
| 2026-04-22 21:59 | -23.38656 | -68.14546 | 35995 ft | 395 kts | 320° |
| 2026-04-22 21:59 | -23.34289 | -68.18181 | 35978 ft | 395 kts | 320° |
| 2026-04-22 22:00 | -23.29917 | -68.21814 | 35970 ft | 396 kts | 320° |
| 2026-04-22 22:00 | -23.25536 | -68.25452 | 35968 ft | 396 kts | 320° |
| 2026-04-22 22:01 | -23.21151 | -68.29087 | 35965 ft | 396 kts | 320° |
| 2026-04-22 22:01 | -23.16761 | -68.32726 | 35972 ft | 397 kts | 321° |
| 2026-04-22 22:02 | -23.12372 | -68.36367 | 35983 ft | 397 kts | 321° |
| 2026-04-22 22:02 | -23.07972 | -68.40011 | 35998 ft | 398 kts | 321° |
| 2026-04-22 22:03 | -23.03599 | -68.43632 | 36010 ft | 398 kts | 321° |
| 2026-04-22 22:03 | -22.99169 | -68.47290 | 36021 ft | 398 kts | 321° |
| 2026-04-22 22:04 | -22.94790 | -68.50895 | 36040 ft | 397 kts | 321° |
| 2026-04-22 22:04 | -22.90365 | -68.54555 | 36069 ft | 398 kts | 321° |
| 2026-04-22 22:05 | -22.85994 | -68.58162 | 36081 ft | 397 kts | 321° |
| 2026-04-22 22:05 | -22.81565 | -68.61809 | 36085 ft | 397 kts | 321° |
| 2026-04-22 22:06 | -22.77192 | -68.65404 | 36087 ft | 397 kts | 321° |
| 2026-04-22 22:06 | -22.72795 | -68.69016 | 36145 ft | 397 kts | 321° |
| 2026-04-22 22:07 | -22.68394 | -68.72633 | 36195 ft | 397 kts | 321° |
| 2026-04-22 22:07 | -22.63991 | -68.76250 | 36248 ft | 397 kts | 321° |
| 2026-04-22 22:08 | -22.59586 | -68.79864 | 36301 ft | 398 kts | 321° |
| 2026-04-22 22:08 | -22.55167 | -68.83481 | 36348 ft | 398 kts | 321° |
| 2026-04-22 22:09 | -22.50745 | -68.87103 | 36347 ft | 398 kts | 321° |
| 2026-04-22 22:09 | -22.46401 | -68.90831 | 36347 ft | 398 kts | 319° |
| 2026-04-22 22:10 | -22.42195 | -68.94672 | 36346 ft | 398 kts | 318° |
| 2026-04-22 22:10 | -22.37960 | -68.98539 | 36286 ft | 399 kts | 319° |
| 2026-04-22 22:11 | -22.33686 | -69.02383 | 36226 ft | 399 kts | 319° |
| 2026-04-22 22:11 | -22.29405 | -69.06207 | 36166 ft | 399 kts | 319° |
| 2026-04-22 22:12 | -22.25148 | -69.10013 | 36099 ft | 399 kts | 319° |
| 2026-04-22 22:12 | -22.20868 | -69.13845 | 36039 ft | 400 kts | 319° |
| 2026-04-22 22:13 | -22.16583 | -69.17671 | 36030 ft | 400 kts | 319° |
| 2026-04-22 22:13 | -22.12297 | -69.21500 | 36024 ft | 400 kts | 319° |
| 2026-04-22 22:14 | -22.08007 | -69.25328 | 36017 ft | 400 kts | 319° |
| 2026-04-22 22:14 | -22.03710 | -69.29152 | 36007 ft | 401 kts | 319° |
| 2026-04-22 22:15 | -21.99411 | -69.32986 | 35998 ft | 401 kts | 319° |
| 2026-04-22 22:15 | -21.95142 | -69.36789 | 35994 ft | 401 kts | 319° |
| 2026-04-22 22:16 | -21.90838 | -69.40618 | 35989 ft | 401 kts | 319° |
| 2026-04-22 22:16 | -21.86532 | -69.44442 | 35980 ft | 401 kts | 319° |
| 2026-04-22 22:17 | -21.82216 | -69.48272 | 35979 ft | 402 kts | 319° |
| 2026-04-22 22:17 | -21.77899 | -69.52105 | 35979 ft | 402 kts | 319° |
| 2026-04-22 22:18 | -21.73578 | -69.55932 | 35978 ft | 402 kts | 319° |
| 2026-04-22 22:18 | -21.69252 | -69.59759 | 35982 ft | 403 kts | 319° |
| 2026-04-22 22:19 | -21.65657 | -69.62943 | 35985 ft | 403 kts | 319° |
| 2026-04-22 22:19 | -21.61331 | -69.66773 | 35992 ft | 403 kts | 319° |
| 2026-04-22 22:20 | -21.56291 | -69.71229 | 35993 ft | 403 kts | 320° |
| 2026-04-22 22:20 | -21.52657 | -69.74436 | 36002 ft | 404 kts | 320° |
| 2026-04-22 22:21 | -21.48307 | -69.78266 | 36007 ft | 404 kts | 320° |
| 2026-04-22 22:21 | -21.43957 | -69.82100 | 36017 ft | 405 kts | 320° |
| 2026-04-22 22:22 | -21.39632 | -69.85914 | 36012 ft | 405 kts | 320° |
| 2026-04-22 22:22 | -21.35271 | -69.89751 | 36020 ft | 405 kts | 320° |
| 2026-04-22 22:23 | -21.30907 | -69.93589 | 36021 ft | 406 kts | 320° |
| 2026-04-22 22:23 | -21.26529 | -69.97434 | 36034 ft | 406 kts | 320° |
| 2026-04-22 22:24 | -21.22152 | -70.01286 | 36026 ft | 406 kts | 320° |
| 2026-04-22 22:24 | -21.17799 | -70.05101 | 36034 ft | 407 kts | 320° |
| 2026-04-22 22:25 | -21.13419 | -70.08943 | 36027 ft | 407 kts | 320° |
| 2026-04-22 22:25 | -21.09037 | -70.12785 | 36041 ft | 407 kts | 320° |
| 2026-04-22 22:26 | -21.04650 | -70.16624 | 36029 ft | 407 kts | 320° |
| 2026-04-22 22:26 | -21.00256 | -70.20462 | 36037 ft | 408 kts | 320° |
| 2026-04-22 22:27 | -20.95862 | -70.24301 | 36028 ft | 408 kts | 320° |
| 2026-04-22 22:27 | -20.91465 | -70.28145 | 36033 ft | 408 kts | 320° |
| 2026-04-22 22:28 | -20.87053 | -70.31986 | 36028 ft | 409 kts | 320° |
| 2026-04-22 22:28 | -20.82636 | -70.35826 | 36027 ft | 409 kts | 320° |
| 2026-04-22 22:29 | -20.78224 | -70.39672 | 36038 ft | 409 kts | 320° |
| 2026-04-22 22:29 | -20.73842 | -70.43500 | 36027 ft | 410 kts | 320° |
| 2026-04-22 22:30 | -20.69421 | -70.47345 | 36030 ft | 410 kts | 320° |
| 2026-04-22 22:30 | -20.64989 | -70.51187 | 36041 ft | 410 kts | 320° |
| 2026-04-22 22:31 | -20.60566 | -70.55031 | 36030 ft | 410 kts | 320° |
| 2026-04-22 22:31 | -20.56134 | -70.58884 | 36028 ft | 411 kts | 321° |
| 2026-04-22 22:32 | -20.51698 | -70.62729 | 36029 ft | 411 kts | 321° |
| 2026-04-22 22:32 | -20.47266 | -70.66576 | 36033 ft | 411 kts | 321° |
| 2026-04-22 22:33 | -20.42822 | -70.70422 | 36034 ft | 411 kts | 321° |
| 2026-04-22 22:33 | -20.38377 | -70.74269 | 36033 ft | 412 kts | 321° |
| 2026-04-22 22:34 | -20.33957 | -70.78092 | 36042 ft | 412 kts | 321° |
| 2026-04-22 22:34 | -20.29505 | -70.81938 | 36033 ft | 412 kts | 321° |
| 2026-04-22 22:35 | -20.25050 | -70.85784 | 36036 ft | 412 kts | 321° |
| 2026-04-22 22:35 | -20.20591 | -70.89639 | 36032 ft | 413 kts | 321° |
| 2026-04-22 22:36 | -20.16129 | -70.93488 | 36031 ft | 413 kts | 321° |
| 2026-04-22 22:36 | -20.11653 | -70.97334 | 36037 ft | 413 kts | 321° |
| 2026-04-22 22:37 | -20.07207 | -71.01151 | 36038 ft | 414 kts | 321° |
| 2026-04-22 22:37 | -20.02725 | -71.05003 | 36030 ft | 414 kts | 321° |
| 2026-04-22 22:38 | -19.98245 | -71.08858 | 36031 ft | 414 kts | 321° |
| 2026-04-22 22:38 | -19.93761 | -71.12714 | 36030 ft | 415 kts | 321° |
| 2026-04-22 22:39 | -19.89270 | -71.16566 | 36031 ft | 415 kts | 321° |
| 2026-04-22 22:39 | -19.84772 | -71.20425 | 36032 ft | 415 kts | 321° |
| 2026-04-22 22:40 | -19.80303 | -71.24251 | 36033 ft | 416 kts | 321° |
| 2026-04-22 22:40 | -19.75795 | -71.28108 | 36031 ft | 416 kts | 321° |
| 2026-04-22 22:41 | -19.71285 | -71.31964 | 36035 ft | 416 kts | 321° |
| 2026-04-22 22:41 | -19.66772 | -71.35821 | 36034 ft | 417 kts | 321° |
| 2026-04-22 22:42 | -19.62258 | -71.39675 | 36033 ft | 417 kts | 321° |
| 2026-04-22 22:42 | -19.57737 | -71.43534 | 36036 ft | 417 kts | 321° |
| 2026-04-22 22:43 | -19.53208 | -71.47387 | 36033 ft | 417 kts | 321° |
| 2026-04-22 22:43 | -19.48680 | -71.51240 | 36033 ft | 418 kts | 321° |
| 2026-04-22 22:44 | -19.44146 | -71.55105 | 36035 ft | 418 kts | 322° |
| 2026-04-22 22:44 | -19.39614 | -71.58968 | 36029 ft | 418 kts | 321° |
| 2026-04-22 22:45 | -19.35088 | -71.62824 | 36033 ft | 418 kts | 321° |
| 2026-04-22 22:45 | -19.30547 | -71.66679 | 36033 ft | 418 kts | 321° |
| 2026-04-22 22:46 | -19.26005 | -71.70536 | 36032 ft | 418 kts | 321° |
| 2026-04-22 22:46 | -19.21494 | -71.74363 | 36035 ft | 419 kts | 321° |
| 2026-04-22 22:47 | -19.16947 | -71.78220 | 36032 ft | 419 kts | 321° |
| 2026-04-22 22:47 | -19.12392 | -71.82073 | 36034 ft | 419 kts | 321° |
| 2026-04-22 22:48 | -19.07834 | -71.85928 | 36034 ft | 420 kts | 321° |
| 2026-04-22 22:48 | -19.03269 | -71.89787 | 36034 ft | 420 kts | 321° |
| 2026-04-22 22:49 | -18.98733 | -71.93629 | 36037 ft | 420 kts | 321° |
| 2026-04-22 22:49 | -18.94172 | -71.97486 | 36038 ft | 420 kts | 321° |
| 2026-04-22 22:50 | -18.89596 | -72.01340 | 36036 ft | 421 kts | 321° |
| 2026-04-22 22:50 | -18.85015 | -72.05200 | 36039 ft | 421 kts | 321° |
| 2026-04-22 22:51 | -18.80439 | -72.09062 | 36039 ft | 421 kts | 321° |
| 2026-04-22 22:51 | -18.75853 | -72.12926 | 36039 ft | 422 kts | 321° |
| 2026-04-22 22:52 | -18.71264 | -72.16788 | 36040 ft | 422 kts | 321° |
| 2026-04-22 22:52 | -18.66660 | -72.20655 | 36037 ft | 423 kts | 321° |
| 2026-04-22 22:53 | -18.62052 | -72.24520 | 36040 ft | 423 kts | 321° |
| 2026-04-22 22:53 | -18.57445 | -72.28397 | 36038 ft | 424 kts | 321° |
| 2026-04-22 22:54 | -18.52833 | -72.32277 | 36039 ft | 424 kts | 321° |
| 2026-04-22 22:54 | -18.48237 | -72.36127 | 36038 ft | 425 kts | 321° |
| 2026-04-22 22:55 | -18.43616 | -72.40007 | 36040 ft | 425 kts | 321° |
| 2026-04-22 22:55 | -18.36661 | -72.45825 | 36037 ft | 426 kts | 322° |
| 2026-04-22 22:56 | -18.32021 | -72.49708 | 36041 ft | 426 kts | 321° |
| 2026-04-22 22:56 | -18.27374 | -72.53600 | 36045 ft | 427 kts | 321° |
| 2026-04-22 22:57 | -18.22725 | -72.57488 | 36043 ft | 427 kts | 321° |
| 2026-04-22 22:57 | -18.18066 | -72.61380 | 36044 ft | 427 kts | 321° |
| 2026-04-22 22:58 | -18.13436 | -72.65248 | 36050 ft | 428 kts | 322° |
| 2026-04-22 22:58 | -18.08767 | -72.69152 | 36049 ft | 428 kts | 322° |
| 2026-04-22 22:59 | -18.04097 | -72.73037 | 36051 ft | 428 kts | 322° |
| 2026-04-22 22:59 | -17.99418 | -72.76931 | 36051 ft | 429 kts | 322° |
| 2026-04-22 23:00 | -17.94735 | -72.80827 | 36053 ft | 429 kts | 322° |
| 2026-04-22 23:00 | -17.90054 | -72.84726 | 36050 ft | 430 kts | 322° |
| 2026-04-22 23:01 | -17.85365 | -72.88631 | 36050 ft | 430 kts | 322° |
| 2026-04-22 23:01 | -17.80707 | -72.92505 | 36052 ft | 430 kts | 322° |
| 2026-04-22 23:02 | -17.75978 | -72.96428 | 36052 ft | 431 kts | 322° |
| 2026-04-22 23:02 | -17.71308 | -73.00299 | 36052 ft | 431 kts | 322° |
| 2026-04-22 23:03 | -17.66600 | -73.04194 | 36050 ft | 431 kts | 322° |
| 2026-04-22 23:03 | -17.61893 | -73.08102 | 36054 ft | 431 kts | 322° |
| 2026-04-22 23:04 | -17.57187 | -73.12007 | 36052 ft | 431 kts | 322° |
| 2026-04-22 23:04 | -17.52471 | -73.15912 | 36062 ft | 432 kts | 322° |
| 2026-04-22 23:05 | -17.47771 | -73.19789 | 36054 ft | 432 kts | 322° |
| 2026-04-22 23:05 | -17.43048 | -73.23692 | 36049 ft | 432 kts | 322° |
| 2026-04-22 23:06 | -17.38311 | -73.27601 | 36049 ft | 433 kts | 322° |
| 2026-04-22 23:06 | -17.33582 | -73.31509 | 36055 ft | 433 kts | 322° |
| 2026-04-22 23:07 | -17.28850 | -73.35414 | 36050 ft | 434 kts | 322° |
| 2026-04-22 23:07 | -17.24104 | -73.39323 | 36055 ft | 434 kts | 322° |
| 2026-04-22 23:08 | -17.20161 | -73.42573 | 36055 ft | 434 kts | 322° |
| 2026-04-22 23:08 | -17.14637 | -73.47112 | 36054 ft | 435 kts | 322° |
| 2026-04-22 23:09 | -17.10656 | -73.50387 | 36054 ft | 435 kts | 322° |
| 2026-04-22 23:09 | -17.05921 | -73.54281 | 36054 ft | 435 kts | 322° |
| 2026-04-22 23:10 | -17.01166 | -73.58194 | 36053 ft | 435 kts | 322° |
| 2026-04-22 23:10 | -16.96393 | -73.62114 | 36048 ft | 436 kts | 322° |
| 2026-04-22 23:11 | -16.91623 | -73.66027 | 36052 ft | 436 kts | 322° |
| 2026-04-22 23:11 | -16.86847 | -73.69943 | 36050 ft | 436 kts | 322° |
| 2026-04-22 23:12 | -16.82066 | -73.73864 | 36049 ft | 437 kts | 322° |
| 2026-04-22 23:12 | -16.77286 | -73.77779 | 36047 ft | 437 kts | 322° |
| 2026-04-22 23:13 | -16.72497 | -73.81695 | 36049 ft | 437 kts | 322° |
| 2026-04-22 23:13 | -16.67707 | -73.85607 | 36046 ft | 437 kts | 322° |
| 2026-04-22 23:14 | -16.62943 | -73.89500 | 36043 ft | 437 kts | 322° |
| 2026-04-22 23:14 | -16.58153 | -73.93418 | 36045 ft | 438 kts | 322° |
| 2026-04-22 23:15 | -16.53360 | -73.97331 | 36045 ft | 438 kts | 322° |
| 2026-04-22 23:15 | -16.48560 | -74.01240 | 36044 ft | 438 kts | 322° |
| 2026-04-22 23:16 | -16.43761 | -74.05150 | 36040 ft | 438 kts | 323° |
| 2026-04-22 23:16 | -16.38948 | -74.09070 | 36036 ft | 439 kts | 323° |
| 2026-04-22 23:17 | -16.34139 | -74.12986 | 36043 ft | 439 kts | 323° |
| 2026-04-22 23:17 | -16.29322 | -74.16907 | 36041 ft | 439 kts | 323° |
| 2026-04-22 23:18 | -16.24504 | -74.20824 | 36042 ft | 440 kts | 323° |
| 2026-04-22 23:18 | -16.19678 | -74.24741 | 36039 ft | 440 kts | 323° |
| 2026-04-22 23:19 | -16.14841 | -74.28661 | 36043 ft | 440 kts | 323° |
| 2026-04-22 23:19 | -16.10003 | -74.32578 | 36041 ft | 441 kts | 323° |
| 2026-04-22 23:20 | -16.05177 | -74.36484 | 36042 ft | 441 kts | 323° |
| 2026-04-22 23:20 | -16.00331 | -74.40414 | 36044 ft | 442 kts | 323° |
| 2026-04-22 23:21 | -15.95485 | -74.44340 | 36043 ft | 442 kts | 323° |
| 2026-04-22 23:21 | -15.90633 | -74.48275 | 36051 ft | 443 kts | 323° |
| 2026-04-22 23:22 | -15.85766 | -74.52209 | 36059 ft | 443 kts | 323° |
| 2026-04-22 23:22 | -15.80891 | -74.56141 | 36064 ft | 444 kts | 323° |
| 2026-04-22 23:23 | -15.76010 | -74.60073 | 36070 ft | 444 kts | 323° |
| 2026-04-22 23:23 | -15.71137 | -74.64007 | 36066 ft | 444 kts | 323° |
| 2026-04-22 23:24 | -15.66267 | -74.67944 | 36069 ft | 444 kts | 323° |
| 2026-04-22 23:24 | -15.61384 | -74.71878 | 36072 ft | 445 kts | 323° |
| 2026-04-22 23:25 | -15.56491 | -74.75811 | 36074 ft | 445 kts | 323° |
| 2026-04-22 23:25 | -15.51599 | -74.79751 | 36076 ft | 445 kts | 323° |
| 2026-04-22 23:26 | -15.46709 | -74.83691 | 36087 ft | 446 kts | 323° |
| 2026-04-22 23:26 | -15.41807 | -74.87637 | 36086 ft | 446 kts | 323° |
| 2026-04-22 23:27 | -15.36899 | -74.91577 | 36084 ft | 446 kts | 323° |
| 2026-04-22 23:27 | -15.32013 | -74.95491 | 36077 ft | 447 kts | 323° |
| 2026-04-22 23:28 | -15.27100 | -74.99441 | 36076 ft | 447 kts | 323° |
| 2026-04-22 23:28 | -15.22174 | -75.03394 | 36078 ft | 448 kts | 323° |
| 2026-04-22 23:29 | -15.17238 | -75.07349 | 36077 ft | 449 kts | 323° |
| 2026-04-22 23:29 | -15.12303 | -75.11307 | 36079 ft | 449 kts | 323° |
| 2026-04-22 23:30 | -15.07363 | -75.15270 | 36079 ft | 450 kts | 323° |
| 2026-04-22 23:30 | -15.02409 | -75.19233 | 36078 ft | 450 kts | 323° |
| 2026-04-22 23:31 | -14.97448 | -75.23196 | 36078 ft | 451 kts | 323° |
| 2026-04-22 23:31 | -14.92482 | -75.27154 | 36080 ft | 451 kts | 323° |
| 2026-04-22 23:32 | -14.87521 | -75.31117 | 36077 ft | 450 kts | 323° |
| 2026-04-22 23:32 | -14.82562 | -75.35078 | 36079 ft | 451 kts | 323° |
| 2026-04-22 23:33 | -14.77599 | -75.39034 | 36079 ft | 451 kts | 323° |
| 2026-04-22 23:33 | -14.72660 | -75.42969 | 36079 ft | 451 kts | 323° |
| 2026-04-22 23:34 | -14.67688 | -75.46933 | 36083 ft | 452 kts | 323° |
| 2026-04-22 23:34 | -14.62713 | -75.50903 | 36084 ft | 452 kts | 323° |
| 2026-04-22 23:35 | -14.57733 | -75.54872 | 36084 ft | 452 kts | 323° |
| 2026-04-22 23:35 | -14.52743 | -75.58836 | 36083 ft | 453 kts | 323° |
| 2026-04-22 23:36 | -14.47748 | -75.62802 | 36078 ft | 453 kts | 323° |
| 2026-04-22 23:36 | -14.42753 | -75.66766 | 36070 ft | 453 kts | 323° |
| 2026-04-22 23:37 | -14.37752 | -75.70738 | 36061 ft | 454 kts | 323° |
| 2026-04-22 23:37 | -14.32748 | -75.74708 | 36056 ft | 454 kts | 323° |
| 2026-04-22 23:38 | -14.27742 | -75.78679 | 36043 ft | 454 kts | 323° |
| 2026-04-22 23:38 | -14.22724 | -75.82650 | 36034 ft | 454 kts | 323° |
| 2026-04-22 23:39 | -14.17713 | -75.86627 | 36028 ft | 455 kts | 323° |
| 2026-04-22 23:39 | -14.12696 | -75.90599 | 36019 ft | 455 kts | 323° |
| 2026-04-22 23:40 | -14.07676 | -75.94571 | 36011 ft | 455 kts | 323° |
| 2026-04-22 23:40 | -14.02686 | -75.98518 | 36000 ft | 455 kts | 323° |
| 2026-04-22 23:41 | -13.97657 | -76.02493 | 35994 ft | 456 kts | 323° |
| 2026-04-22 23:41 | -13.92623 | -76.06462 | 35978 ft | 456 kts | 323° |
| 2026-04-22 23:42 | -13.87588 | -76.10441 | 35977 ft | 456 kts | 323° |
| 2026-04-22 23:42 | -13.82556 | -76.14420 | 35978 ft | 456 kts | 324° |
| 2026-04-22 23:43 | -13.77516 | -76.18392 | 35982 ft | 456 kts | 324° |
| 2026-04-22 23:43 | -13.72500 | -76.22340 | 35978 ft | 456 kts | 324° |
| 2026-04-22 23:44 | -13.67443 | -76.26271 | 35978 ft | 456 kts | 324° |
| 2026-04-22 23:44 | -13.62208 | -76.29937 | 35972 ft | 455 kts | 329° |
| 2026-04-22 23:45 | -13.56802 | -76.33336 | 35972 ft | 456 kts | 330° |
| 2026-04-22 23:45 | -13.51368 | -76.36699 | 35969 ft | 456 kts | 330° |
| 2026-04-22 23:46 | -13.45933 | -76.40078 | 35970 ft | 456 kts | 330° |
| 2026-04-22 23:46 | -13.40515 | -76.43480 | 35969 ft | 456 kts | 330° |
| 2026-04-22 23:47 | -13.35100 | -76.46876 | 35973 ft | 456 kts | 330° |
| 2026-04-22 23:47 | -13.29704 | -76.50256 | 35627 ft | 457 kts | 330° |
| 2026-04-22 23:48 | -13.26980 | -76.51961 | 35390 ft | 458 kts | 329° |
| 2026-04-22 23:48 | -13.24261 | -76.53663 | 35153 ft | 458 kts | 329° |
| 2026-04-22 23:48 | -13.21538 | -76.55369 | 34918 ft | 459 kts | 329° |
| 2026-04-22 23:48 | -13.18811 | -76.57078 | 34690 ft | 460 kts | 329° |
| 2026-04-22 23:49 | -13.16075 | -76.58791 | 34459 ft | 460 kts | 329° |
| 2026-04-22 23:49 | -13.13337 | -76.60504 | 34237 ft | 461 kts | 329° |
| 2026-04-22 23:49 | -13.10585 | -76.62221 | 34012 ft | 463 kts | 329° |
| 2026-04-22 23:49 | -13.07829 | -76.63944 | 33603 ft | 464 kts | 328° |
| 2026-04-22 23:50 | -13.05061 | -76.65675 | 32535 ft | 469 kts | 328° |
| 2026-04-22 23:50 | -13.02293 | -76.67402 | 31488 ft | 474 kts | 328° |
| 2026-04-22 23:50 | -12.99460 | -76.69170 | 30452 ft | 479 kts | 328° |
| 2026-04-22 23:50 | -12.96597 | -76.70958 | 29194 ft | 486 kts | 328° |
| 2026-04-22 23:51 | -12.93692 | -76.72771 | 27902 ft | 490 kts | 328° |
| 2026-04-22 23:51 | -12.90780 | -76.74591 | 26689 ft | 492 kts | 328° |
| 2026-04-22 23:51 | -12.87851 | -76.76419 | 25460 ft | 493 kts | 328° |
| 2026-04-22 23:51 | -12.84923 | -76.78244 | 24289 ft | 492 kts | 328° |
| 2026-04-22 23:52 | -12.82004 | -76.80058 | 23081 ft | 490 kts | 328° |
| 2026-04-22 23:52 | -12.79135 | -76.81838 | 21780 ft | 473 kts | 328° |
| 2026-04-22 23:52 | -12.76384 | -76.83554 | 20928 ft | 451 kts | 328° |
| 2026-04-22 23:52 | -12.73766 | -76.85191 | 20744 ft | 432 kts | 328° |
| 2026-04-22 23:53 | -12.71250 | -76.86763 | 20619 ft | 415 kts | 328° |
| 2026-04-22 23:53 | -12.68826 | -76.88274 | 20507 ft | 400 kts | 328° |
| 2026-04-22 23:53 | -12.66487 | -76.89729 | 20384 ft | 386 kts | 328° |
| 2026-04-22 23:53 | -12.64229 | -76.91131 | 20267 ft | 373 kts | 328° |
| 2026-04-22 23:54 | -12.62055 | -76.92484 | 20152 ft | 360 kts | 328° |
| 2026-04-22 23:54 | -12.59950 | -76.93792 | 19994 ft | 349 kts | 328° |
| 2026-04-22 23:54 | -12.57888 | -76.95068 | 19740 ft | 343 kts | 330° |
| 2026-04-22 23:54 | -12.55789 | -76.96141 | 19512 ft | 340 kts | 333° |
| 2026-04-22 23:55 | -12.53664 | -76.97196 | 19157 ft | 339 kts | 333° |
| 2026-04-22 23:55 | -12.51539 | -76.98253 | 18711 ft | 340 kts | 334° |
| 2026-04-22 23:55 | -12.49418 | -76.99306 | 18331 ft | 338 kts | 334° |
| 2026-04-22 23:55 | -12.47312 | -77.00353 | 17986 ft | 335 kts | 334° |
| 2026-04-22 23:56 | -12.45227 | -77.01393 | 17592 ft | 332 kts | 333° |
| 2026-04-22 23:56 | -12.43156 | -77.02426 | 17204 ft | 330 kts | 334° |
| 2026-04-22 23:56 | -12.41101 | -77.03452 | 16835 ft | 328 kts | 334° |
| 2026-04-22 23:56 | -12.39748 | -77.04126 | 16591 ft | 326 kts | 334° |
| 2026-04-22 23:57 | -12.37722 | -77.05133 | 16080 ft | 321 kts | 334° |
| 2026-04-22 23:57 | -12.35723 | -77.06125 | 15438 ft | 318 kts | 334° |
| 2026-04-22 23:57 | -12.33757 | -77.07102 | 14975 ft | 312 kts | 334° |
| 2026-04-22 23:57 | -12.31814 | -77.08066 | 14569 ft | 309 kts | 334° |
| 2026-04-22 23:58 | -12.29886 | -77.09021 | 14170 ft | 307 kts | 334° |
| 2026-04-22 23:58 | -12.27973 | -77.09967 | 13774 ft | 306 kts | 334° |
| 2026-04-22 23:58 | -12.26051 | -77.10919 | 13341 ft | 307 kts | 334° |
| 2026-04-22 23:58 | -12.24129 | -77.11873 | 12936 ft | 306 kts | 334° |
| 2026-04-22 23:59 | -12.22221 | -77.12819 | 12557 ft | 305 kts | 334° |
| 2026-04-22 23:59 | -12.20320 | -77.13760 | 12176 ft | 304 kts | 334° |
| 2026-04-22 23:59 | -12.18426 | -77.14700 | 11793 ft | 301 kts | 334° |
| 2026-04-22 23:59 | -12.16554 | -77.15632 | 11366 ft | 297 kts | 334° |
| 2026-04-23 00:00 | -12.12889 | -77.17453 | 10739 ft | 285 kts | 334° |
| 2026-04-23 00:00 | -12.11140 | -77.18323 | 10596 ft | 276 kts | 334° |
| 2026-04-23 00:00 | -12.09434 | -77.19169 | 10481 ft | 270 kts | 334° |
| 2026-04-23 00:01 | -12.07737 | -77.20011 | 10190 ft | 271 kts | 334° |
| 2026-04-23 00:01 | -12.06039 | -77.20854 | 9834 ft | 271 kts | 334° |
| 2026-04-23 00:01 | -12.04335 | -77.21697 | 9441 ft | 272 kts | 334° |
| 2026-04-23 00:01 | -12.02637 | -77.22538 | 9072 ft | 271 kts | 334° |
| 2026-04-23 00:02 | -12.00946 | -77.23379 | 8705 ft | 270 kts | 333° |
| 2026-04-23 00:02 | -11.99268 | -77.24241 | 8333 ft | 269 kts | 333° |
| 2026-04-23 00:02 | -11.97625 | -77.25098 | 7974 ft | 268 kts | 332° |
| 2026-04-23 00:02 | -11.95966 | -77.25969 | 7608 ft | 268 kts | 332° |
| 2026-04-23 00:03 | -11.94310 | -77.26839 | 7244 ft | 267 kts | 332° |
| 2026-04-23 00:03 | -11.92655 | -77.27707 | 6882 ft | 267 kts | 332° |
| 2026-04-23 00:03 | -11.90992 | -77.28559 | 6490 ft | 268 kts | 333° |
| 2026-04-23 00:03 | -11.89314 | -77.29391 | 6085 ft | 268 kts | 334° |
| 2026-04-23 00:04 | -11.87628 | -77.30213 | 5676 ft | 268 kts | 334° |
| 2026-04-23 00:04 | -11.85855 | -77.30739 | 5281 ft | 265 kts | 0° |
| 2026-04-23 00:04 | -11.84100 | -77.30311 | 4894 ft | 259 kts | 32° |
| 2026-04-23 00:04 | -11.82830 | -77.29057 | 4479 ft | 253 kts | 62° |
| 2026-04-23 00:05 | -11.82041 | -77.27473 | 4240 ft | 245 kts | 66° |
| 2026-04-23 00:05 | -11.81479 | -77.25914 | 4219 ft | 225 kts | 84° |
| 2026-04-23 00:05 | -11.81535 | -77.24362 | 4165 ft | 217 kts | 106° |
| 2026-04-23 00:05 | -11.82153 | -77.22998 | 4022 ft | 215 kts | 128° |
| 2026-04-23 00:06 | -11.83261 | -77.21969 | 3802 ft | 213 kts | 151° |
| 2026-04-23 00:06 | -11.84564 | -77.21312 | 3560 ft | 211 kts | 154° |
| 2026-04-23 00:06 | -11.85887 | -77.20663 | 3305 ft | 211 kts | 154° |
| 2026-04-23 00:06 | -11.87206 | -77.20014 | 3026 ft | 210 kts | 154° |
| 2026-04-23 00:07 | -11.88521 | -77.19366 | 2748 ft | 207 kts | 154° |
| 2026-04-23 00:07 | -11.89782 | -77.18745 | 2511 ft | 195 kts | 154° |
| 2026-04-23 00:07 | -11.90969 | -77.18160 | 2248 ft | 183 kts | 154° |
| 2026-04-23 00:07 | -11.92078 | -77.17613 | 2000 ft | 171 kts | 154° |
| 2026-04-23 00:08 | -11.93094 | -77.17112 | 1808 ft | 153 kts | 154° |
| 2026-04-23 00:08 | -11.94007 | -77.16662 | 1614 ft | 140 kts | 155° |
| 2026-04-23 00:08 | -11.94870 | -77.16236 | 1432 ft | 136 kts | 155° |
| 2026-04-23 00:08 | -11.95714 | -77.15820 | 1258 ft | 134 kts | 156° |
| 2026-04-23 00:09 | -11.96552 | -77.15407 | 1089 ft | 134 kts | 156° |
| 2026-04-23 00:09 | -11.97390 | -77.14994 | 909 ft | 134 kts | 156° |
| 2026-04-23 00:09 | -11.98223 | -77.14582 | 731 ft | 133 kts | 156° |
| 2026-04-23 00:09 | -11.99052 | -77.14174 | 549 ft | 131 kts | 156° |
| 2026-04-23 00:10 | -11.99872 | -77.13772 | 374 ft | 130 kts | 156° |
| 2026-04-23 00:10 | -12.00687 | -77.13366 | 202 ft | 130 kts | 155° |
| 2026-04-23 00:10 | -12.01500 | -77.12961 | 50 ft | 128 kts | 156° |
| 2026-04-23 00:10 | -12.02211 | -77.12616 | 45 ft | 91 kts | 155° |
| 2026-04-23 00:11 | -12.02633 | -77.12408 | 51 ft | 48 kts | 153° |
| 2026-04-23 00:11 | -12.02814 | -77.12318 | 52 ft | 10 kts | 154° |
| 2026-04-23 00:11 | -12.02887 | -77.12283 | 56 ft | 15 kts | 155° |
| 2026-04-23 00:11 | -12.03000 | -77.12229 | 58 ft | 21 kts | 155° |
| 2026-04-23 00:12 | -12.03149 | -77.12154 | 59 ft | 25 kts | 154° |
| 2026-04-23 00:12 | -12.03302 | -77.12077 | 65 ft | 24 kts | 154° |
| 2026-04-23 00:12 | -12.03449 | -77.12002 | 74 ft | 23 kts | 145° |
| 2026-04-23 00:12 | -12.03434 | -77.11858 | 68 ft | 23 kts | 39° |
| 2026-04-23 00:13 | -12.03342 | -77.11886 | 70 ft | 10 kts | 334° |
| 2026-04-23 00:13 | -12.03281 | -77.11915 | 73 ft | 10 kts | 336° |
| 2026-04-23 00:13 | -12.03216 | -77.11944 | 66 ft | 11 kts | 339° |
| 2026-04-23 00:13 | -12.03150 | -77.11912 | 66 ft | 10 kts | 56° |
| 2026-04-23 00:14 | -12.03132 | -77.11879 | 82 ft | 0 kts | 65° |
| 2026-04-23 00:14 | -12.03131 | -77.11876 | 81 ft | 3 kts | 65° |
| 2026-04-23 00:14 | -12.03121 | -77.11854 | 81 ft | 0 kts | 65° |
| 2026-04-23 00:15 | -12.03120 | -77.11852 | 81 ft | 0 kts | 64° |